Friday, May 22, 2015, 1:32 PM EDT

KMUI, Muir Army Air Field / Indiantown

Location: Jonestown, PA, United States Lat: 40.433
Local Time: 1:32 PM EDT (17:32 GMT) Lon: -76.567
Time Zone: US/Eastern Elev: 488 ft

Show me the last for .
Show Decoded

2015-05-22 13:25 METAR KMUI 221725Z AUTO 27012G24KT 230V310 10SM CLR 21/05 A3000 RMK AO2 WSHFT 22
                 =
2015-05-22 12:58 METAR KMUI 221658Z AUTO 29015G25KT 260V320 10SM FEW120 20/05 A3001 RMK AO2 PK
                 WND 26026/41 SLP164 T01980053 $ =
2015-05-22 11:58 METAR KMUI 221558Z AUTO 25012G18KT 10SM SCT090 SCT110 BKN150 19/06 A3002 RMK AO2
                 PK WND 28026/44 SLP168 T01890057 $ =
2015-05-22 10:58 METAR KMUI 221458Z AUTO 29010G22KT 260V340 10SM CLR 18/05 A3003 RMK AO2 SLP172
                 T01780051 52009 $ =
2015-05-22 09:58 METAR KMUI 221358Z AUTO 27011G17KT 10SM CLR 16/05 A3002 RMK AO2 SLP169 T01610048
                 $ =
2015-05-22 08:58 METAR KMUI 221258Z AUTO 30009G15KT 10SM CLR 15/05 A3001 RMK AO2 SLP165 T01450045
                 $ =
2015-05-22 07:58 METAR KMUI 221158Z AUTO 28011G18KT 10SM CLR 13/04 A3000 RMK AO2 SLP162 T01280041
                 10128 20109 52016 $ =
2015-05-22 06:58 METAR KMUI 221058Z AUTO 27012G16KT 10SM CLR 12/04 A2999 RMK AO2 SLP159 T01160042
                 $ =
2015-05-22 05:58 METAR KMUI 220958Z AUTO 28011G15KT 10SM CLR 11/04 A2997 RMK AO2 SLP152 T01090042
                 $ =
2015-05-22 04:58 METAR KMUI 220858Z AUTO 28012G17KT 10SM CLR 11/04 A2995 RMK AO2 SLP145 T01120043
                 52009 $ =
2015-05-22 02:58 METAR KMUI 220658Z AUTO 27011KT 10SM OVC080 11/07 A2993 RMK AO2 SLP138 T01120067
                 $ =
2015-05-22 01:58 METAR KMUI 220558Z AUTO 29007KT 10SM FEW080 11/07 A2993 RMK AO2 SLP138 T01110073
                 10132 20111 58002 $ =
2015-05-22 00:58 METAR KMUI 220458Z AUTO 30006KT 10SM SCT100 BKN140 11/08 A2993 RMK AO2 SLP138
                 T01140076 401530087 $ =
2015-05-21 23:58 METAR KMUI 220358Z AUTO 27008KT 10SM SCT019 BKN060 OVC120 12/08 A2993 RMK AO2
                 SLPNO T01160079 $ =
2015-05-21 22:58 METAR KMUI 220258Z AUTO VRB06KT 10SM FEW047 OVC060 12/08 A2993 RMK AO2 SLP139
                 T01170079 50003 $ =
2015-05-21 21:58 METAR KMUI 220158Z AUTO VRB05KT 10SM BKN060 BKN080 OVC110 12/07 A2993 RMK AO2
                 SLP139 T01210073 $ =
2015-05-21 20:58 METAR KMUI 220058Z AUTO 29005KT 10SM BKN035 13/07 A2993 RMK AO2 SLP138 T01280069
                 $ =
2015-05-21 19:58 METAR KMUI 212358Z AUTO VRB04KT 10SM OVC035 13/06 A2992 RMK AO2 SLP135 T01330064
                 10153 20133 53003 $ =
2015-05-21 18:58 METAR KMUI 212258Z AUTO 22005KT 10SM OVC042 14/06 A2991 RMK AO2 SLP132 T01370059
                 $ =
2015-05-21 17:58 METAR KMUI 212158Z AUTO 20005KT 10SM OVC046 14/05 A2991 RMK AO2 SLP132 T01400050
                 $ =
2015-05-21 16:58 METAR KMUI 212058Z AUTO 19004KT 10SM OVC048 14/04 A2991 RMK AO2 SLP132 T01430041
                 56016 $ =
2015-05-21 15:58 METAR KMUI 211958Z AUTO VRB04KT 10SM OVC050 15/04 A2992 RMK AO2 SLP135 T01480037
                 $ =
2015-05-21 14:58 METAR KMUI 211858Z AUTO 22006KT 10SM SCT050 BKN060 BKN150 BKN190 15/03 A2993 RMK
                 AO2 SLP138 T01500034 $ =
2015-05-21 13:58 METAR KMUI 211758Z AUTO VRB04KT 10SM BKN045 BKN055 15/04 A2996 RMK AO2 SLP149
                 60000 T01460035 10146 20110 $ =

Support USWX by starting your Amazon purchase here.